sensor_id;sensor_type;location;lat;lon;timestamp;P1;durP1;ratioP1;P2;durP2;ratioP2
53533;SDS011;39421;53.204;6.568;2023-04-16T00:00:46;51.25;;;22.88;;
53533;SDS011;39421;53.204;6.568;2023-04-16T00:03:13;47.15;;;21.77;;
53533;SDS011;39421;53.204;6.568;2023-04-16T00:05:39;49.77;;;22.17;;
53533;SDS011;39421;53.204;6.568;2023-04-16T00:08:05;51.88;;;22.73;;
53533;SDS011;39421;53.204;6.568;2023-04-16T00:10:33;52.03;;;22.00;;
53533;SDS011;39421;53.204;6.568;2023-04-16T00:12:59;50.30;;;22.40;;
53533;SDS011;39421;53.204;6.568;2023-04-16T00:15:25;57.33;;;22.97;;
53533;SDS011;39421;53.204;6.568;2023-04-16T00:17:51;53.08;;;22.55;;
53533;SDS011;39421;53.204;6.568;2023-04-16T00:20:17;53.88;;;22.52;;
53533;SDS011;39421;53.204;6.568;2023-04-16T00:22:44;50.05;;;22.23;;
53533;SDS011;39421;53.204;6.568;2023-04-16T00:25:10;54.33;;;23.10;;
53533;SDS011;39421;53.204;6.568;2023-04-16T00:27:36;55.92;;;23.65;;
53533;SDS011;39421;53.204;6.568;2023-04-16T00:30:02;50.95;;;22.83;;
53533;SDS011;39421;53.204;6.568;2023-04-16T00:32:29;51.47;;;22.97;;
53533;SDS011;39421;53.204;6.568;2023-04-16T00:34:55;58.60;;;25.03;;
53533;SDS011;39421;53.204;6.568;2023-04-16T00:37:21;54.95;;;23.65;;
53533;SDS011;39421;53.204;6.568;2023-04-16T00:39:47;54.90;;;24.27;;
53533;SDS011;39421;53.204;6.568;2023-04-16T00:42:13;54.28;;;25.02;;
53533;SDS011;39421;53.204;6.568;2023-04-16T00:44:40;47.40;;;22.85;;
53533;SDS011;39421;53.204;6.568;2023-04-16T00:47:06;45.60;;;23.20;;
53533;SDS011;39421;53.204;6.568;2023-04-16T00:49:32;46.90;;;22.13;;
53533;SDS011;39421;53.204;6.568;2023-04-16T00:51:58;47.50;;;23.23;;
53533;SDS011;39421;53.204;6.568;2023-04-16T00:54:26;48.33;;;23.17;;
53533;SDS011;39421;53.204;6.568;2023-04-16T00:56:53;48.07;;;24.03;;
53533;SDS011;39421;53.204;6.568;2023-04-16T00:59:19;47.72;;;23.98;;
53533;SDS011;39421;53.204;6.568;2023-04-16T01:01:45;43.88;;;23.02;;
53533;SDS011;39421;53.204;6.568;2023-04-16T01:04:11;50.77;;;24.03;;
53533;SDS011;39421;53.204;6.568;2023-04-16T01:06:37;47.50;;;23.77;;
53533;SDS011;39421;53.204;6.568;2023-04-16T01:09:04;46.85;;;23.85;;
53533;SDS011;39421;53.204;6.568;2023-04-16T01:11:30;47.75;;;24.73;;
53533;SDS011;39421;53.204;6.568;2023-04-16T01:13:56;46.88;;;25.27;;
53533;SDS011;39421;53.204;6.568;2023-04-16T01:16:22;49.65;;;24.23;;
53533;SDS011;39421;53.204;6.568;2023-04-16T01:18:50;52.42;;;24.65;;
53533;SDS011;39421;53.204;6.568;2023-04-16T01:21:16;54.65;;;25.23;;
53533;SDS011;39421;53.204;6.568;2023-04-16T01:23:43;50.17;;;24.98;;
53533;SDS011;39421;53.204;6.568;2023-04-16T01:26:09;54.10;;;24.42;;
53533;SDS011;39421;53.204;6.568;2023-04-16T01:28:35;57.85;;;25.92;;
53533;SDS011;39421;53.204;6.568;2023-04-16T01:31:01;56.65;;;25.52;;
53533;SDS011;39421;53.204;6.568;2023-04-16T01:33:27;58.27;;;26.00;;
53533;SDS011;39421;53.204;6.568;2023-04-16T01:35:53;54.63;;;25.73;;
53533;SDS011;39421;53.204;6.568;2023-04-16T01:38:20;55.75;;;24.88;;
53533;SDS011;39421;53.204;6.568;2023-04-16T01:40:46;58.10;;;26.45;;
53533;SDS011;39421;53.204;6.568;2023-04-16T01:43:12;58.15;;;26.30;;
53533;SDS011;39421;53.204;6.568;2023-04-16T01:45:38;59.97;;;26.13;;
53533;SDS011;39421;53.204;6.568;2023-04-16T01:48:04;57.20;;;25.23;;
53533;SDS011;39421;53.204;6.568;2023-04-16T01:50:30;60.42;;;25.17;;
53533;SDS011;39421;53.204;6.568;2023-04-16T01:52:57;47.47;;;23.48;;
53533;SDS011;39421;53.204;6.568;2023-04-16T01:55:23;47.35;;;23.38;;
53533;SDS011;39421;53.204;6.568;2023-04-16T01:57:49;50.67;;;23.92;;
53533;SDS011;39421;53.204;6.568;2023-04-16T02:00:15;50.35;;;22.83;;
53533;SDS011;39421;53.204;6.568;2023-04-16T02:02:41;48.50;;;22.95;;
53533;SDS011;39421;53.204;6.568;2023-04-16T02:05:07;48.17;;;23.15;;
53533;SDS011;39421;53.204;6.568;2023-04-16T02:07:34;48.40;;;22.23;;
53533;SDS011;39421;53.204;6.568;2023-04-16T02:10:00;55.35;;;24.38;;
53533;SDS011;39421;53.204;6.568;2023-04-16T02:12:26;53.83;;;24.73;;
53533;SDS011;39421;53.204;6.568;2023-04-16T02:14:52;53.97;;;23.67;;
53533;SDS011;39421;53.204;6.568;2023-04-16T02:17:18;50.88;;;23.73;;
53533;SDS011;39421;53.204;6.568;2023-04-16T02:19:45;52.63;;;24.15;;
53533;SDS011;39421;53.204;6.568;2023-04-16T02:22:11;56.97;;;25.75;;
53533;SDS011;39421;53.204;6.568;2023-04-16T02:24:37;52.63;;;24.90;;
53533;SDS011;39421;53.204;6.568;2023-04-16T02:27:03;52.57;;;24.27;;
53533;SDS011;39421;53.204;6.568;2023-04-16T02:29:29;54.88;;;25.08;;
53533;SDS011;39421;53.204;6.568;2023-04-16T02:31:56;54.05;;;24.63;;
53533;SDS011;39421;53.204;6.568;2023-04-16T02:34:23;57.53;;;24.85;;
53533;SDS011;39421;53.204;6.568;2023-04-16T02:36:49;50.00;;;24.33;;
53533;SDS011;39421;53.204;6.568;2023-04-16T02:39:15;51.53;;;23.77;;
53533;SDS011;39421;53.204;6.568;2023-04-16T02:41:42;58.38;;;25.17;;
53533;SDS011;39421;53.204;6.568;2023-04-16T02:44:08;55.37;;;24.60;;
53533;SDS011;39421;53.204;6.568;2023-04-16T02:46:34;55.40;;;23.92;;
53533;SDS011;39421;53.204;6.568;2023-04-16T02:49:00;60.88;;;24.98;;
53533;SDS011;39421;53.204;6.568;2023-04-16T02:51:26;58.73;;;24.20;;
53533;SDS011;39421;53.204;6.568;2023-04-16T02:53:53;53.03;;;22.30;;
53533;SDS011;39421;53.204;6.568;2023-04-16T02:56:19;50.20;;;22.83;;
53533;SDS011;39421;53.204;6.568;2023-04-16T02:58:45;52.08;;;22.27;;
53533;SDS011;39421;53.204;6.568;2023-04-16T03:01:11;48.40;;;22.98;;
53533;SDS011;39421;53.204;6.568;2023-04-16T03:03:37;55.60;;;22.60;;
53533;SDS011;39421;53.204;6.568;2023-04-16T03:06:03;53.93;;;24.00;;
53533;SDS011;39421;53.204;6.568;2023-04-16T03:08:29;48.55;;;22.70;;
53533;SDS011;39421;53.204;6.568;2023-04-16T03:10:55;49.85;;;22.27;;
53533;SDS011;39421;53.204;6.568;2023-04-16T03:13:22;47.60;;;22.60;;
53533;SDS011;39421;53.204;6.568;2023-04-16T03:15:48;47.38;;;21.48;;
53533;SDS011;39421;53.204;6.568;2023-04-16T03:18:14;47.30;;;21.90;;
53533;SDS011;39421;53.204;6.568;2023-04-16T03:20:40;52.45;;;22.48;;
53533;SDS011;39421;53.204;6.568;2023-04-16T03:23:06;50.15;;;21.83;;
53533;SDS011;39421;53.204;6.568;2023-04-16T03:25:32;51.80;;;22.70;;
53533;SDS011;39421;53.204;6.568;2023-04-16T03:27:58;49.28;;;21.85;;
53533;SDS011;39421;53.204;6.568;2023-04-16T03:30:25;50.45;;;22.00;;
53533;SDS011;39421;53.204;6.568;2023-04-16T03:32:51;52.07;;;21.53;;
53533;SDS011;39421;53.204;6.568;2023-04-16T03:35:17;47.60;;;20.85;;
53533;SDS011;39421;53.204;6.568;2023-04-16T03:37:43;51.90;;;21.05;;
53533;SDS011;39421;53.204;6.568;2023-04-16T03:40:09;56.33;;;21.67;;
53533;SDS011;39421;53.204;6.568;2023-04-16T03:42:36;56.33;;;21.63;;
53533;SDS011;39421;53.204;6.568;2023-04-16T03:45:02;52.85;;;20.23;;
53533;SDS011;39421;53.204;6.568;2023-04-16T03:47:28;64.53;;;22.70;;
53533;SDS011;39421;53.204;6.568;2023-04-16T03:49:55;55.03;;;20.48;;
53533;SDS011;39421;53.204;6.568;2023-04-16T03:52:21;45.67;;;20.67;;
53533;SDS011;39421;53.204;6.568;2023-04-16T03:54:47;48.72;;;20.35;;
53533;SDS011;39421;53.204;6.568;2023-04-16T03:57:13;45.47;;;20.00;;
53533;SDS011;39421;53.204;6.568;2023-04-16T03:59:39;50.10;;;20.10;;
53533;SDS011;39421;53.204;6.568;2023-04-16T04:02:05;50.83;;;20.38;;
53533;SDS011;39421;53.204;6.568;2023-04-16T04:04:31;48.30;;;20.30;;
53533;SDS011;39421;53.204;6.568;2023-04-16T04:06:58;50.80;;;20.48;;
53533;SDS011;39421;53.204;6.568;2023-04-16T04:09:24;47.97;;;19.48;;
53533;SDS011;39421;53.204;6.568;2023-04-16T04:11:50;47.53;;;19.70;;
53533;SDS011;39421;53.204;6.568;2023-04-16T04:14:16;47.33;;;20.00;;
53533;SDS011;39421;53.204;6.568;2023-04-16T04:16:42;48.47;;;20.35;;
53533;SDS011;39421;53.204;6.568;2023-04-16T04:19:08;50.20;;;20.37;;
53533;SDS011;39421;53.204;6.568;2023-04-16T04:21:34;41.15;;;18.95;;
53533;SDS011;39421;53.204;6.568;2023-04-16T04:24:00;53.75;;;21.55;;
53533;SDS011;39421;53.204;6.568;2023-04-16T04:26:26;58.78;;;22.08;;
53533;SDS011;39421;53.204;6.568;2023-04-16T04:28:53;46.38;;;20.08;;
53533;SDS011;39421;53.204;6.568;2023-04-16T04:31:19;48.57;;;20.67;;
53533;SDS011;39421;53.204;6.568;2023-04-16T04:33:45;52.63;;;20.58;;
53533;SDS011;39421;53.204;6.568;2023-04-16T04:36:11;47.65;;;20.17;;
53533;SDS011;39421;53.204;6.568;2023-04-16T04:38:37;51.50;;;21.83;;
53533;SDS011;39421;53.204;6.568;2023-04-16T04:41:03;52.47;;;21.05;;
53533;SDS011;39421;53.204;6.568;2023-04-16T04:43:30;50.38;;;20.58;;
53533;SDS011;39421;53.204;6.568;2023-04-16T04:45:56;49.33;;;20.55;;
53533;SDS011;39421;53.204;6.568;2023-04-16T04:48:22;46.53;;;19.52;;
53533;SDS011;39421;53.204;6.568;2023-04-16T04:50:50;49.88;;;21.00;;
53533;SDS011;39421;53.204;6.568;2023-04-16T04:53:17;52.40;;;20.70;;
53533;SDS011;39421;53.204;6.568;2023-04-16T04:55:44;48.22;;;19.52;;
53533;SDS011;39421;53.204;6.568;2023-04-16T04:58:10;48.63;;;20.17;;
53533;SDS011;39421;53.204;6.568;2023-04-16T05:00:36;47.05;;;18.98;;
53533;SDS011;39421;53.204;6.568;2023-04-16T05:03:03;48.28;;;19.35;;
53533;SDS011;39421;53.204;6.568;2023-04-16T05:05:29;48.55;;;19.77;;
53533;SDS011;39421;53.204;6.568;2023-04-16T05:07:55;38.55;;;18.02;;
53533;SDS011;39421;53.204;6.568;2023-04-16T05:10:22;48.22;;;18.55;;
53533;SDS011;39421;53.204;6.568;2023-04-16T05:12:48;47.70;;;18.63;;
53533;SDS011;39421;53.204;6.568;2023-04-16T05:15:14;47.80;;;19.07;;
53533;SDS011;39421;53.204;6.568;2023-04-16T05:17:40;46.83;;;18.25;;
53533;SDS011;39421;53.204;6.568;2023-04-16T05:20:07;41.40;;;18.17;;
53533;SDS011;39421;53.204;6.568;2023-04-16T05:22:33;47.00;;;18.60;;
53533;SDS011;39421;53.204;6.568;2023-04-16T05:24:59;50.50;;;19.10;;
53533;SDS011;39421;53.204;6.568;2023-04-16T05:27:26;46.42;;;17.63;;
53533;SDS011;39421;53.204;6.568;2023-04-16T05:29:52;45.72;;;18.05;;
53533;SDS011;39421;53.204;6.568;2023-04-16T05:32:18;46.85;;;19.02;;
53533;SDS011;39421;53.204;6.568;2023-04-16T05:34:44;49.00;;;18.55;;
53533;SDS011;39421;53.204;6.568;2023-04-16T05:37:10;41.28;;;17.80;;
53533;SDS011;39421;53.204;6.568;2023-04-16T05:39:36;43.22;;;18.40;;
53533;SDS011;39421;53.204;6.568;2023-04-16T05:42:02;40.83;;;18.08;;
53533;SDS011;39421;53.204;6.568;2023-04-16T05:44:28;45.03;;;18.85;;
53533;SDS011;39421;53.204;6.568;2023-04-16T05:46:55;39.25;;;18.38;;
53533;SDS011;39421;53.204;6.568;2023-04-16T05:49:21;49.50;;;18.67;;
53533;SDS011;39421;53.204;6.568;2023-04-16T05:51:47;39.20;;;17.38;;
53533;SDS011;39421;53.204;6.568;2023-04-16T05:54:13;34.88;;;16.27;;
53533;SDS011;39421;53.204;6.568;2023-04-16T05:56:39;38.13;;;17.13;;
53533;SDS011;39421;53.204;6.568;2023-04-16T05:59:05;33.20;;;16.58;;
53533;SDS011;39421;53.204;6.568;2023-04-16T06:01:32;37.97;;;16.88;;
53533;SDS011;39421;53.204;6.568;2023-04-16T06:03:58;40.67;;;17.52;;
53533;SDS011;39421;53.204;6.568;2023-04-16T06:06:24;37.47;;;17.23;;
53533;SDS011;39421;53.204;6.568;2023-04-16T06:08:51;39.40;;;17.63;;
53533;SDS011;39421;53.204;6.568;2023-04-16T06:11:17;47.10;;;18.83;;
53533;SDS011;39421;53.204;6.568;2023-04-16T06:13:44;43.53;;;18.08;;
53533;SDS011;39421;53.204;6.568;2023-04-16T06:16:10;43.67;;;18.13;;
53533;SDS011;39421;53.204;6.568;2023-04-16T06:18:36;42.20;;;18.15;;
53533;SDS011;39421;53.204;6.568;2023-04-16T06:21:02;46.97;;;18.55;;
53533;SDS011;39421;53.204;6.568;2023-04-16T06:23:29;45.50;;;18.00;;
53533;SDS011;39421;53.204;6.568;2023-04-16T06:25:55;45.83;;;18.40;;
53533;SDS011;39421;53.204;6.568;2023-04-16T06:28:21;39.28;;;16.67;;
53533;SDS011;39421;53.204;6.568;2023-04-16T06:30:47;44.22;;;18.15;;
53533;SDS011;39421;53.204;6.568;2023-04-16T06:33:13;42.75;;;17.67;;
53533;SDS011;39421;53.204;6.568;2023-04-16T06:35:40;44.22;;;17.73;;
53533;SDS011;39421;53.204;6.568;2023-04-16T06:38:06;49.47;;;18.20;;
53533;SDS011;39421;53.204;6.568;2023-04-16T06:40:32;41.22;;;16.67;;
53533;SDS011;39421;53.204;6.568;2023-04-16T06:43:01;47.72;;;17.75;;
53533;SDS011;39421;53.204;6.568;2023-04-16T06:45:27;47.00;;;17.80;;
53533;SDS011;39421;53.204;6.568;2023-04-16T06:47:53;41.95;;;17.00;;
53533;SDS011;39421;53.204;6.568;2023-04-16T06:50:19;46.65;;;18.20;;
53533;SDS011;39421;53.204;6.568;2023-04-16T06:52:47;43.95;;;17.60;;
53533;SDS011;39421;53.204;6.568;2023-04-16T06:55:13;42.05;;;16.75;;
53533;SDS011;39421;53.204;6.568;2023-04-16T06:57:39;38.80;;;16.05;;
53533;SDS011;39421;53.204;6.568;2023-04-16T07:00:06;39.03;;;16.88;;
53533;SDS011;39421;53.204;6.568;2023-04-16T07:02:32;38.63;;;16.45;;
53533;SDS011;39421;53.204;6.568;2023-04-16T07:04:58;39.38;;;16.33;;
53533;SDS011;39421;53.204;6.568;2023-04-16T07:07:24;41.40;;;16.17;;
53533;SDS011;39421;53.204;6.568;2023-04-16T07:09:51;38.53;;;16.20;;
53533;SDS011;39421;53.204;6.568;2023-04-16T07:12:17;38.37;;;15.73;;
53533;SDS011;39421;53.204;6.568;2023-04-16T07:14:43;38.80;;;16.83;;
53533;SDS011;39421;53.204;6.568;2023-04-16T07:17:09;38.58;;;16.23;;
53533;SDS011;39421;53.204;6.568;2023-04-16T07:19:35;36.17;;;16.53;;
53533;SDS011;39421;53.204;6.568;2023-04-16T07:22:01;39.20;;;16.65;;
53533;SDS011;39421;53.204;6.568;2023-04-16T07:24:27;41.47;;;16.77;;
53533;SDS011;39421;53.204;6.568;2023-04-16T07:26:54;37.20;;;15.73;;
53533;SDS011;39421;53.204;6.568;2023-04-16T07:29:20;38.80;;;16.13;;
53533;SDS011;39421;53.204;6.568;2023-04-16T07:31:46;34.47;;;15.98;;
53533;SDS011;39421;53.204;6.568;2023-04-16T07:34:12;39.17;;;16.30;;
53533;SDS011;39421;53.204;6.568;2023-04-16T07:36:38;40.47;;;18.30;;
53533;SDS011;39421;53.204;6.568;2023-04-16T07:39:05;38.58;;;16.40;;
53533;SDS011;39421;53.204;6.568;2023-04-16T07:41:31;35.60;;;16.10;;
53533;SDS011;39421;53.204;6.568;2023-04-16T07:43:57;36.42;;;16.10;;
53533;SDS011;39421;53.204;6.568;2023-04-16T07:46:23;35.08;;;15.40;;
53533;SDS011;39421;53.204;6.568;2023-04-16T07:48:50;40.60;;;17.65;;
53533;SDS011;39421;53.204;6.568;2023-04-16T07:51:16;30.53;;;14.10;;
53533;SDS011;39421;53.204;6.568;2023-04-16T07:53:42;35.43;;;15.83;;
53533;SDS011;39421;53.204;6.568;2023-04-16T07:56:08;37.08;;;16.17;;
53533;SDS011;39421;53.204;6.568;2023-04-16T07:58:34;35.28;;;15.07;;
53533;SDS011;39421;53.204;6.568;2023-04-16T08:01:01;39.00;;;16.90;;
53533;SDS011;39421;53.204;6.568;2023-04-16T08:03:27;37.25;;;16.02;;
53533;SDS011;39421;53.204;6.568;2023-04-16T08:05:53;35.50;;;15.52;;
53533;SDS011;39421;53.204;6.568;2023-04-16T08:08:19;35.10;;;15.37;;
53533;SDS011;39421;53.204;6.568;2023-04-16T08:10:45;34.20;;;15.00;;
53533;SDS011;39421;53.204;6.568;2023-04-16T08:13:11;32.05;;;14.55;;
53533;SDS011;39421;53.204;6.568;2023-04-16T08:15:37;33.47;;;14.77;;
53533;SDS011;39421;53.204;6.568;2023-04-16T08:18:04;33.55;;;14.80;;
53533;SDS011;39421;53.204;6.568;2023-04-16T08:20:31;33.58;;;14.20;;
53533;SDS011;39421;53.204;6.568;2023-04-16T08:22:57;34.33;;;14.37;;
53533;SDS011;39421;53.204;6.568;2023-04-16T08:25:23;35.95;;;15.10;;
53533;SDS011;39421;53.204;6.568;2023-04-16T08:27:49;34.58;;;15.15;;
53533;SDS011;39421;53.204;6.568;2023-04-16T08:30:16;31.65;;;13.68;;
53533;SDS011;39421;53.204;6.568;2023-04-16T08:32:42;33.63;;;14.80;;
53533;SDS011;39421;53.204;6.568;2023-04-16T08:35:08;31.95;;;13.48;;
53533;SDS011;39421;53.204;6.568;2023-04-16T08:37:35;34.58;;;14.63;;
53533;SDS011;39421;53.204;6.568;2023-04-16T08:40:01;32.47;;;14.27;;
53533;SDS011;39421;53.204;6.568;2023-04-16T08:42:33;31.65;;;14.90;;
53533;SDS011;39421;53.204;6.568;2023-04-16T08:45:12;31.15;;;13.73;;
53533;SDS011;39421;53.204;6.568;2023-04-16T08:47:44;32.03;;;15.02;;
53533;SDS011;39421;53.204;6.568;2023-04-16T08:50:10;31.50;;;14.15;;
53533;SDS011;39421;53.204;6.568;2023-04-16T08:52:38;31.63;;;14.02;;
53533;SDS011;39421;53.204;6.568;2023-04-16T08:55:11;30.73;;;14.43;;
53533;SDS011;39421;53.204;6.568;2023-04-16T08:57:38;34.42;;;14.55;;
53533;SDS011;39421;53.204;6.568;2023-04-16T09:00:07;31.05;;;14.82;;
53533;SDS011;39421;53.204;6.568;2023-04-16T09:02:33;29.10;;;14.33;;
53533;SDS011;39421;53.204;6.568;2023-04-16T09:05:00;31.17;;;14.88;;
53533;SDS011;39421;53.204;6.568;2023-04-16T09:07:28;30.98;;;14.45;;
53533;SDS011;39421;53.204;6.568;2023-04-16T09:09:54;32.88;;;14.43;;
53533;SDS011;39421;53.204;6.568;2023-04-16T09:12:22;32.05;;;14.40;;
53533;SDS011;39421;53.204;6.568;2023-04-16T09:14:49;31.98;;;14.93;;
53533;SDS011;39421;53.204;6.568;2023-04-16T09:17:15;30.33;;;15.10;;
53533;SDS011;39421;53.204;6.568;2023-04-16T09:19:41;30.02;;;14.90;;
53533;SDS011;39421;53.204;6.568;2023-04-16T09:22:08;29.50;;;15.33;;
53533;SDS011;39421;53.204;6.568;2023-04-16T09:24:34;31.60;;;15.35;;
53533;SDS011;39421;53.204;6.568;2023-04-16T09:27:02;32.47;;;14.60;;
53533;SDS011;39421;53.204;6.568;2023-04-16T09:29:32;30.20;;;14.87;;
53533;SDS011;39421;53.204;6.568;2023-04-16T09:32:03;30.47;;;14.87;;
53533;SDS011;39421;53.204;6.568;2023-04-16T09:34:31;30.67;;;14.50;;
53533;SDS011;39421;53.204;6.568;2023-04-16T09:37:13;30.17;;;15.20;;
53533;SDS011;39421;53.204;6.568;2023-04-16T09:39:41;29.90;;;15.00;;
53533;SDS011;39421;53.204;6.568;2023-04-16T09:42:07;26.80;;;15.07;;
53533;SDS011;39421;53.204;6.568;2023-04-16T09:44:34;30.05;;;14.13;;
53533;SDS011;39421;53.204;6.568;2023-04-16T09:47:07;29.50;;;14.80;;
53533;SDS011;39421;53.204;6.568;2023-04-16T09:49:34;31.50;;;15.03;;
53533;SDS011;39421;53.204;6.568;2023-04-16T09:52:00;29.35;;;14.85;;
53533;SDS011;39421;53.204;6.568;2023-04-16T09:54:26;28.30;;;14.53;;
53533;SDS011;39421;53.204;6.568;2023-04-16T09:56:55;24.70;;;13.70;;
53533;SDS011;39421;53.204;6.568;2023-04-16T09:59:22;30.42;;;14.82;;
53533;SDS011;39421;53.204;6.568;2023-04-16T10:01:49;29.97;;;14.07;;
53533;SDS011;39421;53.204;6.568;2023-04-16T10:04:17;30.45;;;14.13;;
53533;SDS011;39421;53.204;6.568;2023-04-16T10:06:46;30.03;;;14.77;;
53533;SDS011;39421;53.204;6.568;2023-04-16T10:09:30;29.95;;;13.68;;
53533;SDS011;39421;53.204;6.568;2023-04-16T10:11:56;27.83;;;14.07;;
53533;SDS011;39421;53.204;6.568;2023-04-16T10:14:23;32.15;;;14.70;;
53533;SDS011;39421;53.204;6.568;2023-04-16T10:16:49;30.52;;;15.35;;
53533;SDS011;39421;53.204;6.568;2023-04-16T10:19:15;29.47;;;15.40;;
53533;SDS011;39421;53.204;6.568;2023-04-16T10:21:41;27.93;;;14.43;;
53533;SDS011;39421;53.204;6.568;2023-04-16T10:24:08;27.80;;;14.40;;
53533;SDS011;39421;53.204;6.568;2023-04-16T10:26:34;29.90;;;14.10;;
53533;SDS011;39421;53.204;6.568;2023-04-16T10:29:00;28.40;;;14.25;;
53533;SDS011;39421;53.204;6.568;2023-04-16T10:31:27;27.35;;;14.82;;
53533;SDS011;39421;53.204;6.568;2023-04-16T10:33:53;28.10;;;14.05;;
53533;SDS011;39421;53.204;6.568;2023-04-16T10:36:24;28.92;;;14.63;;
53533;SDS011;39421;53.204;6.568;2023-04-16T10:38:50;29.80;;;14.67;;
53533;SDS011;39421;53.204;6.568;2023-04-16T10:41:18;27.20;;;14.05;;
53533;SDS011;39421;53.204;6.568;2023-04-16T10:43:46;27.85;;;14.73;;
53533;SDS011;39421;53.204;6.568;2023-04-16T10:48:47;29.05;;;14.27;;
53533;SDS011;39421;53.204;6.568;2023-04-16T10:51:24;29.92;;;14.55;;
53533;SDS011;39421;53.204;6.568;2023-04-16T10:53:50;30.75;;;14.75;;
53533;SDS011;39421;53.204;6.568;2023-04-16T10:56:23;28.55;;;13.93;;
53533;SDS011;39421;53.204;6.568;2023-04-16T10:58:49;26.75;;;13.82;;
53533;SDS011;39421;53.204;6.568;2023-04-16T11:01:18;28.20;;;14.30;;
53533;SDS011;39421;53.204;6.568;2023-04-16T11:03:47;30.17;;;14.18;;
53533;SDS011;39421;53.204;6.568;2023-04-16T11:06:14;27.60;;;14.10;;
53533;SDS011;39421;53.204;6.568;2023-04-16T11:08:44;27.90;;;13.82;;
53533;SDS011;39421;53.204;6.568;2023-04-16T11:11:10;26.63;;;13.30;;
53533;SDS011;39421;53.204;6.568;2023-04-16T11:13:37;29.85;;;14.90;;
53533;SDS011;39421;53.204;6.568;2023-04-16T11:16:03;31.80;;;15.13;;
53533;SDS011;39421;53.204;6.568;2023-04-16T11:18:30;28.70;;;14.82;;
53533;SDS011;39421;53.204;6.568;2023-04-16T11:20:56;32.70;;;15.73;;
53533;SDS011;39421;53.204;6.568;2023-04-16T11:23:22;30.02;;;15.63;;
53533;SDS011;39421;53.204;6.568;2023-04-16T11:25:48;28.13;;;15.73;;
53533;SDS011;39421;53.204;6.568;2023-04-16T11:28:30;26.70;;;14.20;;
53533;SDS011;39421;53.204;6.568;2023-04-16T11:30:56;27.95;;;14.63;;
53533;SDS011;39421;53.204;6.568;2023-04-16T11:33:23;28.55;;;14.73;;
53533;SDS011;39421;53.204;6.568;2023-04-16T11:35:56;27.00;;;13.95;;
53533;SDS011;39421;53.204;6.568;2023-04-16T11:38:32;28.83;;;15.20;;
53533;SDS011;39421;53.204;6.568;2023-04-16T11:40:59;30.95;;;15.13;;
53533;SDS011;39421;53.204;6.568;2023-04-16T11:43:25;28.98;;;14.68;;
53533;SDS011;39421;53.204;6.568;2023-04-16T11:45:58;28.20;;;14.57;;
53533;SDS011;39421;53.204;6.568;2023-04-16T11:48:25;27.45;;;14.32;;
53533;SDS011;39421;53.204;6.568;2023-04-16T11:51:11;30.58;;;15.20;;
53533;SDS011;39421;53.204;6.568;2023-04-16T11:53:44;29.55;;;15.02;;
53533;SDS011;39421;53.204;6.568;2023-04-16T11:56:10;28.40;;;14.43;;
53533;SDS011;39421;53.204;6.568;2023-04-16T12:01:12;29.15;;;15.15;;
53533;SDS011;39421;53.204;6.568;2023-04-16T12:03:45;30.38;;;16.10;;
53533;SDS011;39421;53.204;6.568;2023-04-16T12:06:13;28.58;;;15.73;;
53533;SDS011;39421;53.204;6.568;2023-04-16T12:08:41;29.53;;;15.33;;
53533;SDS011;39421;53.204;6.568;2023-04-16T12:11:07;27.67;;;14.75;;
53533;SDS011;39421;53.204;6.568;2023-04-16T12:13:33;28.85;;;15.35;;
53533;SDS011;39421;53.204;6.568;2023-04-16T12:16:11;28.67;;;15.02;;
53533;SDS011;39421;53.204;6.568;2023-04-16T12:18:57;30.50;;;15.80;;
53533;SDS011;39421;53.204;6.568;2023-04-16T12:21:23;27.70;;;15.00;;
53533;SDS011;39421;53.204;6.568;2023-04-16T12:23:52;25.50;;;14.65;;
53533;SDS011;39421;53.204;6.568;2023-04-16T12:26:18;28.45;;;15.30;;
53533;SDS011;39421;53.204;6.568;2023-04-16T12:28:45;25.97;;;14.60;;
53533;SDS011;39421;53.204;6.568;2023-04-16T12:31:11;25.80;;;14.88;;
53533;SDS011;39421;53.204;6.568;2023-04-16T12:33:38;27.08;;;15.30;;
53533;SDS011;39421;53.204;6.568;2023-04-16T12:36:15;27.70;;;14.88;;
53533;SDS011;39421;53.204;6.568;2023-04-16T12:38:42;27.58;;;15.70;;
53533;SDS011;39421;53.204;6.568;2023-04-16T12:41:08;25.70;;;13.90;;
53533;SDS011;39421;53.204;6.568;2023-04-16T12:43:35;26.23;;;14.90;;
53533;SDS011;39421;53.204;6.568;2023-04-16T12:46:01;26.45;;;15.40;;
53533;SDS011;39421;53.204;6.568;2023-04-16T12:48:27;24.80;;;13.95;;
53533;SDS011;39421;53.204;6.568;2023-04-16T12:50:53;26.98;;;15.25;;
53533;SDS011;39421;53.204;6.568;2023-04-16T12:53:20;27.77;;;14.95;;
53533;SDS011;39421;53.204;6.568;2023-04-16T12:55:46;29.00;;;15.17;;
53533;SDS011;39421;53.204;6.568;2023-04-16T12:58:12;27.77;;;15.43;;
53533;SDS011;39421;53.204;6.568;2023-04-16T13:00:38;27.08;;;15.65;;
53533;SDS011;39421;53.204;6.568;2023-04-16T13:03:04;27.00;;;14.73;;
53533;SDS011;39421;53.204;6.568;2023-04-16T13:05:31;28.98;;;15.10;;
53533;SDS011;39421;53.204;6.568;2023-04-16T13:07:57;29.48;;;16.55;;
53533;SDS011;39421;53.204;6.568;2023-04-16T13:10:23;27.50;;;16.38;;
53533;SDS011;39421;53.204;6.568;2023-04-16T13:12:49;27.58;;;15.32;;
53533;SDS011;39421;53.204;6.568;2023-04-16T13:15:15;29.17;;;15.75;;
53533;SDS011;39421;53.204;6.568;2023-04-16T13:17:41;29.77;;;15.70;;
53533;SDS011;39421;53.204;6.568;2023-04-16T13:20:07;28.23;;;15.47;;
53533;SDS011;39421;53.204;6.568;2023-04-16T13:22:34;30.55;;;16.15;;
53533;SDS011;39421;53.204;6.568;2023-04-16T13:25:00;27.23;;;14.70;;
53533;SDS011;39421;53.204;6.568;2023-04-16T13:27:26;28.45;;;15.60;;
53533;SDS011;39421;53.204;6.568;2023-04-16T13:29:52;30.77;;;15.77;;
53533;SDS011;39421;53.204;6.568;2023-04-16T13:32:18;29.77;;;16.02;;
53533;SDS011;39421;53.204;6.568;2023-04-16T13:34:45;28.57;;;15.00;;
53533;SDS011;39421;53.204;6.568;2023-04-16T13:37:11;30.83;;;15.98;;
53533;SDS011;39421;53.204;6.568;2023-04-16T13:39:37;29.63;;;16.48;;
53533;SDS011;39421;53.204;6.568;2023-04-16T13:42:04;30.90;;;15.98;;
53533;SDS011;39421;53.204;6.568;2023-04-16T13:44:30;28.02;;;15.00;;
53533;SDS011;39421;53.204;6.568;2023-04-16T13:46:56;27.05;;;14.93;;
53533;SDS011;39421;53.204;6.568;2023-04-16T13:49:22;28.30;;;14.77;;
53533;SDS011;39421;53.204;6.568;2023-04-16T13:51:48;31.58;;;15.45;;
53533;SDS011;39421;53.204;6.568;2023-04-16T13:54:14;29.65;;;15.55;;
53533;SDS011;39421;53.204;6.568;2023-04-16T13:56:41;27.67;;;15.23;;
53533;SDS011;39421;53.204;6.568;2023-04-16T13:59:07;27.45;;;15.45;;
53533;SDS011;39421;53.204;6.568;2023-04-16T14:01:33;26.50;;;14.27;;
53533;SDS011;39421;53.204;6.568;2023-04-16T14:03:59;28.67;;;14.93;;
53533;SDS011;39421;53.204;6.568;2023-04-16T14:06:30;30.27;;;15.23;;
53533;SDS011;39421;53.204;6.568;2023-04-16T14:08:56;30.17;;;15.48;;
53533;SDS011;39421;53.204;6.568;2023-04-16T14:11:22;27.38;;;15.10;;
53533;SDS011;39421;53.204;6.568;2023-04-16T14:13:48;26.73;;;14.77;;
53533;SDS011;39421;53.204;6.568;2023-04-16T14:16:14;27.25;;;15.13;;
53533;SDS011;39421;53.204;6.568;2023-04-16T14:18:42;31.13;;;16.45;;
53533;SDS011;39421;53.204;6.568;2023-04-16T14:21:08;29.60;;;14.98;;
53533;SDS011;39421;53.204;6.568;2023-04-16T14:23:34;28.73;;;14.98;;